createdAt,value
2016-09-09T00:00:14.220Z,1009.14
2016-09-09T00:01:14.206Z,1009.14
2016-09-09T00:02:14.202Z,1009.17
2016-09-09T00:03:14.189Z,1009.16
2016-09-09T00:04:14.176Z,1009.18
2016-09-09T00:05:14.167Z,1009.18
2016-09-09T00:06:14.158Z,1009.18
2016-09-09T00:07:14.151Z,1009.21
2016-09-09T00:08:14.131Z,1009.25
2016-09-09T00:09:14.119Z,1009.24
2016-09-09T00:10:14.108Z,1009.24
2016-09-09T00:11:14.105Z,1009.26
2016-09-09T00:12:14.091Z,1009.25
2016-09-09T00:13:14.080Z,1009.26
2016-09-09T00:14:14.069Z,1009.22
2016-09-09T00:15:14.061Z,1009.22
2016-09-09T00:16:14.040Z,1009.23
2016-09-09T00:17:14.030Z,1009.21
2016-09-09T00:18:14.023Z,1009.19
2016-09-09T00:19:14.007Z,1009.19
2016-09-09T00:20:14.000Z,1009.16
2016-09-09T00:21:13.990Z,1009.18
2016-09-09T00:22:13.976Z,1009.2
2016-09-09T00:23:13.970Z,1009.2
2016-09-09T00:24:13.954Z,1009.19
2016-09-09T00:25:13.949Z,1009.24
2016-09-09T00:26:13.936Z,1009.2
2016-09-09T00:27:13.921Z,1009.21
2016-09-09T00:28:13.915Z,1009.23
2016-09-09T00:29:13.898Z,1009.21
2016-09-09T00:30:13.890Z,1009.24
2016-09-09T00:31:13.875Z,1009.25
2016-09-09T00:32:13.867Z,1009.28
2016-09-09T00:33:13.859Z,1009.25
2016-09-09T00:34:13.846Z,1009.26
2016-09-09T00:35:13.839Z,1009.29
2016-09-09T00:36:13.823Z,1009.28
2016-09-09T00:37:13.813Z,1009.31
2016-09-09T00:38:13.802Z,1009.29
2016-09-09T00:39:13.791Z,1009.29
2016-09-09T00:40:13.778Z,1009.3
2016-09-09T00:41:13.768Z,1009.3
2016-09-09T00:42:13.758Z,1009.25
2016-09-09T00:43:13.749Z,1009.26
2016-09-09T00:44:13.737Z,1009.27
2016-09-09T00:45:13.729Z,1009.19
2016-09-09T00:46:13.714Z,1009.26
2016-09-09T00:47:13.706Z,1009.27
2016-09-09T00:48:13.696Z,1009.24
2016-09-09T00:49:13.680Z,1009.31
2016-09-09T00:50:13.667Z,1009.29
2016-09-09T00:51:13.661Z,1009.31
2016-09-09T00:52:13.645Z,1009.3
2016-09-09T00:53:13.641Z,1009.34
2016-09-09T00:54:13.626Z,1009.36
2016-09-09T00:55:13.611Z,1009.32
2016-09-09T00:56:13.601Z,1009.32
2016-09-09T00:57:13.590Z,1009.36
2016-09-09T00:58:13.580Z,1009.33
2016-09-09T00:59:13.567Z,1009.3
2016-09-09T01:00:13.559Z,1009.34
2016-09-09T01:01:13.550Z,1009.32
2016-09-09T01:02:13.537Z,1009.31
2016-09-09T01:03:13.525Z,1009.34
2016-09-09T01:04:13.511Z,1009.35
2016-09-09T01:05:13.500Z,1009.33
2016-09-09T01:06:13.488Z,1009.37
2016-09-09T01:07:13.480Z,1009.41
2016-09-09T01:08:13.462Z,1009.39
2016-09-09T01:09:13.457Z,1009.43
2016-09-09T01:10:13.439Z,1009.41
2016-09-09T01:11:13.434Z,1009.42
2016-09-09T01:12:13.426Z,1009.41
2016-09-09T01:13:13.410Z,1009.42
2016-09-09T01:14:13.397Z,1009.41
2016-09-09T01:15:13.388Z,1009.42
2016-09-09T01:16:13.378Z,1009.45
2016-09-09T01:17:13.363Z,1009.46
2016-09-09T01:18:13.350Z,1009.47
2016-09-09T01:19:13.338Z,1009.48
2016-09-09T01:20:13.329Z,1009.51
2016-09-09T01:21:13.316Z,1009.56
2016-09-09T01:22:13.308Z,1009.55
2016-09-09T01:23:13.294Z,1009.58
2016-09-09T01:24:13.286Z,1009.62
2016-09-09T01:25:13.271Z,1009.62
2016-09-09T01:26:13.262Z,1009.6
2016-09-09T01:27:13.248Z,1009.62
2016-09-09T01:28:13.240Z,1009.62
2016-09-09T01:29:13.223Z,1009.63
2016-09-09T01:30:13.216Z,1009.71
2016-09-09T01:31:13.207Z,1009.69
2016-09-09T01:32:13.199Z,1009.72
2016-09-09T01:33:13.176Z,1009.69
2016-09-09T01:34:13.169Z,1009.73
2016-09-09T01:35:13.156Z,1009.71
2016-09-09T01:36:13.146Z,1009.76
2016-09-09T01:37:13.135Z,1009.79
2016-09-09T01:38:13.121Z,1009.75
2016-09-09T01:39:13.108Z,1009.73
2016-09-09T01:40:13.103Z,1009.75
2016-09-09T01:41:13.082Z,1009.72
2016-09-09T01:42:13.076Z,1009.77
2016-09-09T01:43:13.057Z,1009.76
2016-09-09T01:44:13.061Z,1009.79
2016-09-09T01:45:13.036Z,1009.78
2016-09-09T01:46:13.029Z,1009.74
2016-09-09T01:47:13.014Z,1009.74
2016-09-09T01:48:13.009Z,1009.77
2016-09-09T01:49:12.997Z,1009.79
2016-09-09T01:50:12.984Z,1009.81
2016-09-09T01:51:12.977Z,1009.84
2016-09-09T01:52:12.964Z,1009.81
2016-09-09T01:53:12.951Z,1009.83
2016-09-09T01:54:12.938Z,1009.79
2016-09-09T01:55:12.930Z,1009.79
2016-09-09T01:56:12.910Z,1009.8
2016-09-09T01:57:12.911Z,1009.78
2016-09-09T01:58:12.888Z,1009.78
2016-09-09T01:59:12.879Z,1009.77
2016-09-09T02:00:12.871Z,1009.78
2016-09-09T02:01:12.860Z,1009.79
2016-09-09T02:02:12.840Z,1009.77
2016-09-09T02:03:12.877Z,1009.82
2016-09-09T02:04:12.819Z,1009.85
2016-09-09T02:05:12.807Z,1009.8
2016-09-09T02:06:12.799Z,1009.83
2016-09-09T02:07:12.780Z,1009.8
2016-09-09T02:08:12.768Z,1009.84
2016-09-09T02:09:12.758Z,1009.82
2016-09-09T02:10:12.749Z,1009.83
2016-09-09T02:11:12.739Z,1009.84
2016-09-09T02:12:12.729Z,1009.79
2016-09-09T02:13:12.711Z,1009.87
2016-09-09T02:14:12.700Z,1009.87
2016-09-09T02:15:12.690Z,1009.85
2016-09-09T02:16:12.678Z,1009.88
2016-09-09T02:17:12.669Z,1009.86
2016-09-09T02:18:12.656Z,1009.87
2016-09-09T02:19:12.643Z,1009.87
2016-09-09T02:20:12.630Z,1009.91
2016-09-09T02:21:12.620Z,1009.91
2016-09-09T02:22:12.610Z,1009.95
2016-09-09T02:23:12.601Z,1009.97
2016-09-09T02:24:12.591Z,1009.94
2016-09-09T02:25:12.580Z,1009.95
2016-09-09T02:26:12.559Z,1009.92
2016-09-09T02:27:12.551Z,1009.93
2016-09-09T02:28:12.540Z,1009.91
2016-09-09T02:29:12.529Z,1009.93
2016-09-09T02:30:12.518Z,1009.89
2016-09-09T02:31:12.506Z,1009.9
2016-09-09T02:32:12.489Z,1009.92
2016-09-09T02:33:12.478Z,1009.93
2016-09-09T02:34:12.466Z,1009.91
2016-09-09T02:35:12.458Z,1009.92
2016-09-09T02:36:12.451Z,1009.92
2016-09-09T02:37:12.438Z,1009.95
2016-09-09T02:38:12.420Z,1009.94
2016-09-09T02:39:12.412Z,1009.96
2016-09-09T02:40:12.394Z,1009.97
2016-09-09T02:41:12.390Z,1009.97
2016-09-09T02:42:12.375Z,1010
2016-09-09T02:43:12.361Z,1009.99
2016-09-09T02:44:12.347Z,1009.98
2016-09-09T02:45:12.341Z,1010.02
2016-09-09T02:46:12.327Z,1010.02
2016-09-09T02:47:12.321Z,1010.02
2016-09-09T02:48:12.311Z,1010.01
2016-09-09T02:49:12.301Z,1009.99
2016-09-09T02:50:12.281Z,1010.02
2016-09-09T02:51:12.267Z,1010
2016-09-09T02:52:12.261Z,1010.02
2016-09-09T02:53:12.251Z,1010.04
2016-09-09T02:54:12.232Z,1010.06
2016-09-09T02:55:12.218Z,1010.11
2016-09-09T02:56:12.301Z,1010.09
2016-09-09T02:57:12.199Z,1010.07
2016-09-09T02:58:12.188Z,1010.04
2016-09-09T02:59:12.188Z,1010.03
2016-09-09T03:00:12.168Z,1010.08
2016-09-09T03:01:12.151Z,1010.09
2016-09-09T03:02:12.138Z,1010.08
2016-09-09T03:03:12.131Z,1010.08
2016-09-09T03:04:12.121Z,1010.08
2016-09-09T03:05:12.101Z,1010.11
2016-09-09T03:06:12.091Z,1010.11
2016-09-09T03:07:12.080Z,1010.11
2016-09-09T03:08:12.070Z,1010.12
2016-09-09T03:09:12.061Z,1010.15
2016-09-09T03:10:12.046Z,1010.14
2016-09-09T03:11:12.032Z,1010.14
2016-09-09T03:12:12.020Z,1010.12
2016-09-09T03:13:12.011Z,1010.17
2016-09-09T03:14:12.000Z,1010.19
2016-09-09T03:15:11.988Z,1010.18
2016-09-09T03:16:11.979Z,1010.22
2016-09-09T03:17:11.961Z,1010.23
2016-09-09T03:18:11.951Z,1010.19
2016-09-09T03:19:11.936Z,1010.21
2016-09-09T03:20:11.925Z,1010.22
2016-09-09T03:21:11.921Z,1010.21
2016-09-09T03:22:11.900Z,1010.25
2016-09-09T03:23:11.901Z,1010.26
2016-09-09T03:24:11.877Z,1010.26
2016-09-09T03:25:11.871Z,1010.3
2016-09-09T03:26:11.858Z,1010.27
2016-09-09T03:27:11.856Z,1010.28
2016-09-09T03:28:11.835Z,1010.23
2016-09-09T03:29:11.817Z,1010.21
2016-09-09T03:30:11.810Z,1010.2
2016-09-09T03:31:11.794Z,1010.21
2016-09-09T03:32:11.784Z,1010.2
2016-09-09T03:33:11.769Z,1010.21
2016-09-09T03:34:11.754Z,1010.19
2016-09-09T03:35:11.750Z,1010.2
2016-09-09T03:36:11.739Z,1010.21
2016-09-09T03:37:11.718Z,1010.18
2016-09-09T03:38:11.714Z,1010.19
2016-09-09T03:39:11.701Z,1010.18
2016-09-09T03:40:11.688Z,1010.19
2016-09-09T03:41:11.673Z,1010.19
2016-09-09T03:42:11.667Z,1010.18
2016-09-09T03:43:11.650Z,1010.15
2016-09-09T03:44:11.634Z,1010.23
2016-09-09T03:45:11.624Z,1010.21
2016-09-09T03:46:11.612Z,1010.2
2016-09-09T03:47:11.600Z,1010.19
2016-09-09T03:48:11.591Z,1010.22
2016-09-09T03:49:11.579Z,1010.21
2016-09-09T03:50:11.564Z,1010.23
2016-09-09T03:51:11.547Z,1010.21
2016-09-09T03:52:11.541Z,1010.24
2016-09-09T03:53:11.528Z,1010.22
2016-09-09T03:54:11.521Z,1010.23
2016-09-09T03:55:11.508Z,1010.2
2016-09-09T03:56:11.488Z,1010.2
2016-09-09T03:57:11.480Z,1010.2
2016-09-09T03:58:11.467Z,1010.21
2016-09-09T03:59:11.461Z,1010.22
2016-09-09T04:00:11.448Z,1010.25
2016-09-09T04:01:11.432Z,1010.25
2016-09-09T04:02:11.415Z,1010.28
2016-09-09T04:03:11.405Z,1010.25
2016-09-09T04:04:11.390Z,1010.24
2016-09-09T04:05:11.378Z,1010.26
2016-09-09T04:06:11.367Z,1010.21
2016-09-09T04:07:11.354Z,1010.18
2016-09-09T04:08:11.337Z,1010.2
2016-09-09T04:09:11.330Z,1010.2
2016-09-09T04:10:11.319Z,1010.26
2016-09-09T04:11:11.312Z,1010.25
2016-09-09T04:12:11.287Z,1010.27
2016-09-09T04:13:11.280Z,1010.31
2016-09-09T04:14:11.271Z,1010.37
2016-09-09T04:15:11.261Z,1010.39
2016-09-09T04:16:11.240Z,1010.42
2016-09-09T04:17:11.230Z,1010.41
2016-09-09T04:18:11.221Z,1010.4
2016-09-09T04:19:11.212Z,1010.33
2016-09-09T04:20:11.188Z,1010.38
2016-09-09T04:21:11.181Z,1010.4
2016-09-09T04:22:11.168Z,1010.39
2016-09-09T04:23:11.155Z,1010.44
2016-09-09T04:24:11.137Z,1010.43
2016-09-09T04:25:11.126Z,1010.46
2016-09-09T04:26:11.120Z,1010.47
2016-09-09T04:27:11.101Z,1010.48
2016-09-09T04:28:11.090Z,1010.47
2016-09-09T04:29:11.080Z,1010.46
2016-09-09T04:30:11.060Z,1010.46
2016-09-09T04:31:11.047Z,1010.47
2016-09-09T04:32:11.038Z,1010.49
2016-09-09T04:33:11.031Z,1010.51
2016-09-09T04:34:11.009Z,1010.55
2016-09-09T04:35:11.001Z,1010.56
2016-09-09T04:36:10.989Z,1010.57
2016-09-09T04:37:10.974Z,1010.6
2016-09-09T04:38:10.958Z,1010.57
2016-09-09T04:39:10.948Z,1010.53
2016-09-09T04:40:10.933Z,1010.55
2016-09-09T04:41:10.921Z,1010.53
2016-09-09T04:42:10.907Z,1010.53
2016-09-09T04:43:10.901Z,1010.51
2016-09-09T04:44:10.881Z,1010.53
2016-09-09T04:45:10.868Z,1010.54
2016-09-09T04:46:10.860Z,1010.57
2016-09-09T04:47:10.847Z,1010.55
2016-09-09T04:48:10.827Z,1010.55
2016-09-09T04:49:10.830Z,1010.57
2016-09-09T04:50:10.811Z,1010.56
2016-09-09T04:51:10.803Z,1010.58
2016-09-09T04:52:10.787Z,1010.53
2016-09-09T04:53:10.771Z,1010.55
2016-09-09T04:54:10.751Z,1010.55
2016-09-09T04:55:10.740Z,1010.56
2016-09-09T04:56:10.726Z,1010.62
2016-09-09T04:57:10.717Z,1010.62
2016-09-09T04:58:10.698Z,1010.65
2016-09-09T04:59:10.688Z,1010.7
2016-09-09T05:00:10.672Z,1010.66
2016-09-09T05:01:10.660Z,1010.69
2016-09-09T05:02:10.651Z,1010.72
2016-09-09T05:03:10.631Z,1010.74
2016-09-09T05:04:10.621Z,1010.79
2016-09-09T05:05:10.607Z,1010.78
2016-09-09T05:06:10.592Z,1010.83
2016-09-09T05:07:10.588Z,1010.84
2016-09-09T05:08:10.571Z,1010.81
2016-09-09T05:09:10.562Z,1010.83
2016-09-09T05:10:10.542Z,1010.86
2016-09-09T05:11:10.531Z,1010.89
2016-09-09T05:12:10.520Z,1010.88
2016-09-09T05:13:10.509Z,1010.89
2016-09-09T05:14:10.499Z,1010.89
2016-09-09T05:15:10.480Z,1010.91
2016-09-09T05:16:10.465Z,1010.97
2016-09-09T05:17:10.457Z,1010.96
2016-09-09T05:18:10.448Z,1010.97
2016-09-09T05:19:10.427Z,1010.99
2016-09-09T05:20:10.418Z,1010.98
2016-09-09T05:21:10.399Z,1011.02
2016-09-09T05:22:10.391Z,1011.01
2016-09-09T05:23:10.375Z,1011.02
2016-09-09T05:24:10.370Z,1011.05
2016-09-09T05:25:10.347Z,1011.04
2016-09-09T05:26:10.339Z,1011.07
2016-09-09T05:27:10.331Z,1011.08
2016-09-09T05:28:10.313Z,1011.1
2016-09-09T05:29:10.301Z,1011.1
2016-09-09T05:30:10.290Z,1011.1
2016-09-09T05:31:10.271Z,1011.1
2016-09-09T05:32:10.259Z,1011.18
2016-09-09T05:33:10.246Z,1011.15
2016-09-09T05:34:10.231Z,1011.12
2016-09-09T05:35:10.219Z,1011.19
2016-09-09T05:36:10.206Z,1011.15
2016-09-09T05:37:10.193Z,1011.15
2016-09-09T05:38:10.181Z,1011.18
2016-09-09T05:39:10.172Z,1011.2
2016-09-09T05:40:10.156Z,1011.23
2016-09-09T05:41:10.140Z,1011.22
2016-09-09T05:42:10.130Z,1011.21
2016-09-09T05:43:10.121Z,1011.22
2016-09-09T05:44:10.103Z,1011.29
2016-09-09T05:45:10.090Z,1011.25
2016-09-09T05:46:10.074Z,1011.26
2016-09-09T05:47:10.069Z,1011.27
2016-09-09T05:48:10.051Z,1011.26
2016-09-09T05:49:10.041Z,1011.31
2016-09-09T05:50:10.031Z,1011.33
2016-09-09T05:51:10.013Z,1011.28
2016-09-09T05:52:09.996Z,1011.32
2016-09-09T05:53:09.999Z,1011.31
2016-09-09T05:54:09.978Z,1011.36
2016-09-09T05:55:09.962Z,1011.3
2016-09-09T05:56:09.947Z,1011.29
2016-09-09T05:57:09.937Z,1011.25
2016-09-09T05:58:09.923Z,1011.31
2016-09-09T05:59:09.909Z,1011.36
2016-09-09T06:00:09.900Z,1011.34
2016-09-09T06:01:09.883Z,1011.36
2016-09-09T06:02:09.872Z,1011.38
2016-09-09T06:03:09.857Z,1011.33
2016-09-09T06:04:09.841Z,1011.34
2016-09-09T06:05:09.843Z,1011.36
2016-09-09T06:06:09.822Z,1011.39
2016-09-09T06:07:09.812Z,1011.4
2016-09-09T06:08:09.793Z,1011.4
2016-09-09T06:09:09.799Z,1011.4
2016-09-09T06:10:09.770Z,1011.44
2016-09-09T06:11:09.755Z,1011.43
2016-09-09T06:12:09.743Z,1011.45
2016-09-09T06:13:09.730Z,1011.48
2016-09-09T06:14:09.718Z,1011.47
2016-09-09T06:15:09.710Z,1011.48
2016-09-09T06:16:09.694Z,1011.47
2016-09-09T06:17:09.680Z,1011.48
2016-09-09T06:18:09.665Z,1011.49
2016-09-09T06:19:09.655Z,1011.5
2016-09-09T06:20:09.642Z,1011.55
2016-09-09T06:21:09.629Z,1011.56
2016-09-09T06:22:09.618Z,1011.56
2016-09-09T06:23:09.606Z,1011.55
2016-09-09T06:24:09.592Z,1011.59
2016-09-09T06:25:09.584Z,1011.62
2016-09-09T06:26:09.564Z,1011.58
2016-09-09T06:27:09.553Z,1011.63
2016-09-09T06:28:09.552Z,1011.6
2016-09-09T06:29:09.527Z,1011.63
2016-09-09T06:30:09.514Z,1011.66
2016-09-09T06:31:09.504Z,1011.73
2016-09-09T06:32:09.492Z,1011.7
2016-09-09T06:33:09.484Z,1011.72
2016-09-09T06:34:09.462Z,1011.67
2016-09-09T06:35:09.451Z,1011.69
2016-09-09T06:36:09.442Z,1011.7
2016-09-09T06:37:09.447Z,1011.75
2016-09-09T06:38:09.413Z,1011.74
2016-09-09T06:39:09.398Z,1011.79
2016-09-09T06:40:09.392Z,1011.8
2016-09-09T06:41:09.383Z,1011.82
2016-09-09T06:42:09.369Z,1011.81
2016-09-09T06:43:09.351Z,1011.81
2016-09-09T06:44:09.336Z,1011.87
2016-09-09T06:45:09.331Z,1011.85
2016-09-09T06:46:09.311Z,1011.84
2016-09-09T06:47:09.299Z,1011.85
2016-09-09T06:48:09.287Z,1011.87
2016-09-09T06:49:09.275Z,1011.88
2016-09-09T06:50:09.259Z,1011.89
2016-09-09T06:51:09.251Z,1011.92
2016-09-09T06:52:09.241Z,1011.91
2016-09-09T06:53:09.220Z,1011.93
2016-09-09T06:54:09.209Z,1011.93
2016-09-09T06:55:09.200Z,1011.94
2016-09-09T06:56:09.187Z,1011.91
2016-09-09T06:57:09.178Z,1011.91
2016-09-09T06:58:09.159Z,1011.93
2016-09-09T06:59:09.151Z,1011.92
2016-09-09T07:00:09.135Z,1011.95
2016-09-09T07:01:09.125Z,1011.95
2016-09-09T07:02:09.119Z,1011.94
2016-09-09T07:03:09.098Z,1012
2016-09-09T07:04:09.091Z,1012
2016-09-09T07:05:09.076Z,1012.04
2016-09-09T07:06:09.067Z,1012
2016-09-09T07:07:09.050Z,1012
2016-09-09T07:08:09.041Z,1011.97
2016-09-09T07:09:09.026Z,1011.97
2016-09-09T07:10:09.020Z,1011.96
2016-09-09T07:11:09.001Z,1012.02
2016-09-09T07:12:08.989Z,1012.01
2016-09-09T07:13:08.979Z,1012.03
2016-09-09T07:14:08.964Z,1012.06
2016-09-09T07:15:08.955Z,1012.07
2016-09-09T07:16:08.941Z,1012.09
2016-09-09T07:17:08.943Z,1012.11
2016-09-09T07:18:08.919Z,1012.08
2016-09-09T07:19:08.902Z,1012.11
2016-09-09T07:20:08.891Z,1012.11
2016-09-09T07:21:08.879Z,1012.11
2016-09-09T07:22:08.880Z,1012.1
2016-09-09T07:23:08.854Z,1012.08
2016-09-09T07:24:08.843Z,1012.06
2016-09-09T07:25:08.828Z,1012.06
2016-09-09T07:26:08.818Z,1012.06
2016-09-09T07:27:08.803Z,1012.09
2016-09-09T07:28:08.792Z,1012.14
2016-09-09T07:29:08.781Z,1012.11
2016-09-09T07:30:08.771Z,1012.17
2016-09-09T07:31:08.758Z,1012.13
2016-09-09T07:32:08.747Z,1012.13
2016-09-09T07:33:08.740Z,1012.15
2016-09-09T07:34:08.722Z,1012.13
2016-09-09T07:35:08.708Z,1012.16
2016-09-09T07:36:08.699Z,1012.13
2016-09-09T07:37:08.683Z,1012.14
2016-09-09T07:38:08.682Z,1012.13
2016-09-09T07:39:08.658Z,1012.12
2016-09-09T07:40:08.646Z,1012.13
2016-09-09T07:41:08.637Z,1012.15
2016-09-09T07:42:08.622Z,1012.16
2016-09-09T07:43:08.607Z,1012.13
2016-09-09T07:44:08.599Z,1012.14
2016-09-09T07:45:08.591Z,1012.16
2016-09-09T07:46:08.580Z,1012.2
2016-09-09T07:47:08.565Z,1012.2
2016-09-09T07:48:08.562Z,1012.15
2016-09-09T07:49:08.540Z,1012.15
2016-09-09T07:50:08.526Z,1012.16
2016-09-09T07:51:08.520Z,1012.17
2016-09-09T07:52:08.504Z,1012.19
2016-09-09T07:53:08.488Z,1012.16
2016-09-09T07:54:08.479Z,1012.19
2016-09-09T07:55:08.469Z,1012.21
2016-09-09T07:56:08.459Z,1012.25
2016-09-09T07:57:08.442Z,1012.27
2016-09-09T07:58:08.430Z,1012.29
2016-09-09T07:59:08.415Z,1012.31
2016-09-09T08:00:08.405Z,1012.31
2016-09-09T08:01:08.391Z,1012.33
2016-09-09T08:02:08.386Z,1012.34
2016-09-09T08:03:08.372Z,1012.34
2016-09-09T08:04:08.356Z,1012.34
2016-09-09T08:05:08.347Z,1012.36
2016-09-09T08:06:08.333Z,1012.38
2016-09-09T08:07:08.317Z,1012.38
2016-09-09T08:08:08.309Z,1012.38
2016-09-09T08:09:08.303Z,1012.42
2016-09-09T08:10:08.285Z,1012.43
2016-09-09T08:11:08.269Z,1012.41
2016-09-09T08:12:08.257Z,1012.4
2016-09-09T08:13:08.247Z,1012.41
2016-09-09T08:14:08.233Z,1012.4
2016-09-09T08:15:08.220Z,1012.39
2016-09-09T08:16:08.211Z,1012.43
2016-09-09T08:17:08.198Z,1012.4
2016-09-09T08:18:08.183Z,1012.38
2016-09-09T08:19:08.177Z,1012.4
2016-09-09T08:20:08.158Z,1012.38
2016-09-09T08:21:08.150Z,1012.4
2016-09-09T08:22:08.134Z,1012.38
2016-09-09T08:23:08.121Z,1012.42
2016-09-09T08:24:08.110Z,1012.45
2016-09-09T08:25:08.099Z,1012.46
2016-09-09T08:26:08.085Z,1012.43
2016-09-09T08:27:08.076Z,1012.46
2016-09-09T08:28:08.065Z,1012.44
2016-09-09T08:29:08.045Z,1012.41
2016-09-09T08:30:08.036Z,1012.45
2016-09-09T08:31:08.028Z,1012.44
2016-09-09T08:32:08.013Z,1012.43
2016-09-09T08:33:08.005Z,1012.43
2016-09-09T08:34:07.991Z,1012.4
2016-09-09T08:35:07.977Z,1012.45
2016-09-09T08:36:07.967Z,1012.43
2016-09-09T08:37:07.954Z,1012.46
2016-09-09T08:38:07.949Z,1012.46
2016-09-09T08:39:07.940Z,1012.45
2016-09-09T08:40:07.919Z,1012.44
2016-09-09T08:41:07.906Z,1012.44
2016-09-09T08:42:07.894Z,1012.44
2016-09-09T08:43:07.885Z,1012.45
2016-09-09T08:44:07.868Z,1012.42
2016-09-09T08:45:07.858Z,1012.44
2016-09-09T08:46:07.845Z,1012.46
2016-09-09T08:47:07.836Z,1012.47
2016-09-09T08:48:07.822Z,1012.46
2016-09-09T08:49:07.810Z,1012.47
2016-09-09T08:50:07.798Z,1012.51
2016-09-09T08:51:07.788Z,1012.5
2016-09-09T08:52:07.773Z,1012.5
2016-09-09T08:53:07.776Z,1012.54
2016-09-09T08:54:07.748Z,1012.57
2016-09-09T08:55:07.737Z,1012.57
2016-09-09T08:56:07.730Z,1012.6
2016-09-09T08:57:07.716Z,1012.63
2016-09-09T08:58:07.703Z,1012.63
2016-09-09T08:59:07.695Z,1012.59
2016-09-09T09:00:07.689Z,1012.59
2016-09-09T09:01:07.674Z,1012.58
2016-09-09T09:02:07.658Z,1012.63
2016-09-09T09:03:07.649Z,1012.59
2016-09-09T09:04:07.634Z,1012.6
2016-09-09T09:05:07.628Z,1012.6
2016-09-09T09:06:07.612Z,1012.62
2016-09-09T09:07:07.600Z,1012.63
2016-09-09T09:08:07.597Z,1012.63
2016-09-09T09:09:07.583Z,1012.67
2016-09-09T09:10:07.566Z,1012.65
2016-09-09T09:11:07.566Z,1012.6
2016-09-09T09:12:07.548Z,1012.65
2016-09-09T09:13:07.533Z,1012.64
2016-09-09T09:14:07.528Z,1012.57
2016-09-09T09:15:07.516Z,1012.6
2016-09-09T09:16:07.498Z,1012.6
2016-09-09T09:17:07.489Z,1012.68
2016-09-09T09:18:07.477Z,1012.68
2016-09-09T09:19:07.481Z,1012.67
2016-09-09T09:20:07.457Z,1012.7
2016-09-09T09:21:07.448Z,1012.69
2016-09-09T09:22:07.436Z,1012.71
2016-09-09T09:23:07.425Z,1012.67
2016-09-09T09:24:07.417Z,1012.71
2016-09-09T09:25:07.397Z,1012.71
2016-09-09T09:26:07.387Z,1012.65
2016-09-09T09:27:07.376Z,1012.71
2016-09-09T09:28:07.360Z,1012.69
2016-09-09T09:29:07.355Z,1012.7
2016-09-09T09:30:07.342Z,1012.7
2016-09-09T09:31:07.333Z,1012.69
2016-09-09T09:32:07.321Z,1012.69
2016-09-09T09:33:07.319Z,1012.67
2016-09-09T09:34:07.297Z,1012.75
2016-09-09T09:35:07.289Z,1012.71
2016-09-09T09:36:07.274Z,1012.7
2016-09-09T09:37:07.269Z,1012.66
2016-09-09T09:38:07.256Z,1012.66
2016-09-09T09:39:07.246Z,1012.69
2016-09-09T09:40:07.234Z,1012.67
2016-09-09T09:41:07.227Z,1012.69
2016-09-09T09:42:07.217Z,1012.75
2016-09-09T09:43:07.209Z,1012.71
2016-09-09T09:44:07.196Z,1012.79
2016-09-09T09:45:07.187Z,1012.74
2016-09-09T09:46:07.175Z,1012.78
2016-09-09T09:47:07.168Z,1012.76
2016-09-09T09:48:07.167Z,1012.74
2016-09-09T09:49:07.158Z,1012.75
2016-09-09T09:50:07.145Z,1012.76
2016-09-09T09:51:07.139Z,1012.77
2016-09-09T09:52:07.133Z,1012.72
2016-09-09T09:53:07.128Z,1012.75
2016-09-09T09:54:07.120Z,1012.79
2016-09-09T09:55:07.113Z,1012.73
2016-09-09T09:56:07.107Z,1012.72
2016-09-09T09:57:07.095Z,1012.72
2016-09-09T09:58:07.098Z,1012.67
2016-09-09T09:59:07.089Z,1012.64
2016-09-09T10:00:07.086Z,1012.69
2016-09-09T10:01:07.076Z,1012.69
2016-09-09T10:02:07.074Z,1012.71
2016-09-09T10:03:07.067Z,1012.68
2016-09-09T10:04:07.057Z,1012.66
2016-09-09T10:05:07.066Z,1012.68
2016-09-09T10:06:07.052Z,1012.67
2016-09-09T10:07:07.045Z,1012.65
2016-09-09T10:08:07.048Z,1012.67
2016-09-09T10:09:07.035Z,1012.66
2016-09-09T10:10:07.038Z,1012.64
2016-09-09T10:11:07.022Z,1012.63
2016-09-09T10:12:07.026Z,1012.61
2016-09-09T10:13:07.019Z,1012.6
2016-09-09T10:14:07.007Z,1012.53
2016-09-09T10:15:07.015Z,1012.59
2016-09-09T10:16:06.998Z,1012.55
2016-09-09T10:17:06.995Z,1012.53
2016-09-09T10:18:06.985Z,1012.5
2016-09-09T10:19:06.984Z,1012.47
2016-09-09T10:20:06.978Z,1012.49
2016-09-09T10:21:06.972Z,1012.49
2016-09-09T10:22:06.966Z,1012.48
2016-09-09T10:23:06.968Z,1012.44
2016-09-09T10:24:06.956Z,1012.42
2016-09-09T10:25:06.959Z,1012.45
2016-09-09T10:26:06.946Z,1012.4
2016-09-09T10:27:06.948Z,1012.36
2016-09-09T10:28:06.936Z,1012.41
2016-09-09T10:29:06.935Z,1012.39
2016-09-09T10:30:06.929Z,1012.4
2016-09-09T10:31:06.924Z,1012.43
2016-09-09T10:32:06.919Z,1012.43
2016-09-09T10:33:06.922Z,1012.42
2016-09-09T10:34:06.905Z,1012.45
2016-09-09T10:35:06.904Z,1012.45
2016-09-09T10:36:06.898Z,1012.42
2016-09-09T10:37:06.896Z,1012.42
2016-09-09T10:38:06.888Z,1012.41
2016-09-09T10:39:06.883Z,1012.44
2016-09-09T10:40:06.875Z,1012.38
2016-09-09T10:41:06.873Z,1012.4
2016-09-09T10:42:06.864Z,1012.37
2016-09-09T10:43:06.867Z,1012.37
2016-09-09T10:44:06.858Z,1012.4
2016-09-09T10:45:06.855Z,1012.35
2016-09-09T10:46:06.842Z,1012.36
2016-09-09T10:47:06.845Z,1012.36
2016-09-09T10:48:06.839Z,1012.35
2016-09-09T10:49:06.836Z,1012.37
2016-09-09T10:50:06.825Z,1012.33
2016-09-09T10:51:06.837Z,1012.37
2016-09-09T10:52:06.813Z,1012.33
2016-09-09T10:53:06.811Z,1012.34
2016-09-09T10:54:06.808Z,1012.33
2016-09-09T10:55:06.797Z,1012.31
2016-09-09T10:56:06.790Z,1012.26
2016-09-09T10:57:06.786Z,1012.27
2016-09-09T10:58:06.781Z,1012.25
2016-09-09T10:59:06.777Z,1012.23
2016-09-09T11:00:06.771Z,1012.24
2016-09-09T11:01:06.786Z,1012.27
2016-09-09T11:02:06.767Z,1012.24
2016-09-09T11:03:06.754Z,1012.27
2016-09-09T11:04:06.751Z,1012.27
2016-09-09T11:05:06.748Z,1012.26
2016-09-09T11:06:06.755Z,1012.22
2016-09-09T11:07:06.735Z,1012.24
2016-09-09T11:08:06.785Z,1012.2
2016-09-09T11:09:06.725Z,1012.18
2016-09-09T11:10:06.723Z,1012.18
2016-09-09T11:11:06.717Z,1012.19
2016-09-09T11:12:06.705Z,1012.2
2016-09-09T11:13:06.702Z,1012.19
2016-09-09T11:14:06.698Z,1012.19
2016-09-09T11:15:06.693Z,1012.19
2016-09-09T11:16:06.687Z,1012.18
2016-09-09T11:17:06.686Z,1012.13
2016-09-09T11:18:06.674Z,1012.17
2016-09-09T11:19:06.671Z,1012.18
2016-09-09T11:20:06.668Z,1012.16
2016-09-09T11:21:06.663Z,1012.16
2016-09-09T11:22:06.657Z,1012.18
2016-09-09T11:23:06.656Z,1012.18
2016-09-09T11:24:06.647Z,1012.13
2016-09-09T11:25:06.639Z,1012.14
2016-09-09T11:26:06.634Z,1012.16
2016-09-09T11:27:06.628Z,1012.14
2016-09-09T11:28:06.625Z,1012.16
2016-09-09T11:29:06.627Z,1012.13
2016-09-09T11:30:06.615Z,1012.14
2016-09-09T11:31:06.607Z,1012.15
2016-09-09T11:32:06.602Z,1012.12
2016-09-09T11:33:06.598Z,1012.13
2016-09-09T11:34:06.598Z,1012.16
2016-09-09T11:35:06.599Z,1012.12
2016-09-09T11:36:06.588Z,1012.14
2016-09-09T11:37:06.648Z,1012.12
2016-09-09T11:38:06.571Z,1012.14
2016-09-09T11:39:06.571Z,1012.15
2016-09-09T11:40:06.560Z,1012.14
2016-09-09T11:41:06.555Z,1012.09
2016-09-09T11:42:06.552Z,1012.12
2016-09-09T11:43:06.549Z,1012.08
2016-09-09T11:44:06.543Z,1012.12
2016-09-09T11:45:06.538Z,1012.13
2016-09-09T11:46:06.536Z,1012.12
2016-09-09T11:47:06.525Z,1012.1
2016-09-09T11:48:06.529Z,1012.11
2016-09-09T11:49:06.517Z,1012.07
2016-09-09T11:50:06.508Z,1012.1
2016-09-09T11:51:06.508Z,1012.1
2016-09-09T11:52:06.509Z,1012.17
2016-09-09T11:53:06.498Z,1012.19
2016-09-09T11:54:06.492Z,1012.15
2016-09-09T11:55:06.489Z,1012.13
2016-09-09T11:56:06.488Z,1012.15
2016-09-09T11:57:06.482Z,1012.11
2016-09-09T11:58:06.472Z,1012.12
2016-09-09T11:59:06.468Z,1012.06
2016-09-09T12:00:06.469Z,1012.09
2016-09-09T12:01:06.464Z,1012.12
2016-09-09T12:02:06.469Z,1012.09
2016-09-09T12:03:06.444Z,1012.06
2016-09-09T12:04:06.445Z,1012.11
2016-09-09T12:05:06.441Z,1012.1
2016-09-09T12:06:06.437Z,1012.1
2016-09-09T12:07:06.426Z,1012.09
2016-09-09T12:08:06.420Z,1012.09